createdAt,value
2018-08-02T00:00:35.109Z,1016.15
2018-08-02T00:01:35.092Z,1016.16
2018-08-02T00:02:35.079Z,1016.18
2018-08-02T00:03:35.088Z,1016.14
2018-08-02T00:04:35.053Z,1016.12
2018-08-02T00:05:35.042Z,1016.14
2018-08-02T00:06:35.031Z,1016.12
2018-08-02T00:07:35.021Z,1016.11
2018-08-02T00:08:34.998Z,1016.12
2018-08-02T00:09:34.985Z,1016.13
2018-08-02T00:10:34.975Z,1016.09
2018-08-02T00:11:34.964Z,1016.09
2018-08-02T00:12:34.950Z,1016.08
2018-08-02T00:13:34.939Z,1016.13
2018-08-02T00:14:34.918Z,1016.13
2018-08-02T00:15:34.908Z,1016.17
2018-08-02T00:16:34.892Z,1016.15
2018-08-02T00:17:34.878Z,1016.15
2018-08-02T00:18:34.863Z,1016.15
2018-08-02T00:19:34.850Z,1016.16
2018-08-02T00:20:34.838Z,1016.14
2018-08-02T00:21:34.825Z,1016.15
2018-08-02T00:22:34.817Z,1016.13
2018-08-02T00:23:34.798Z,1016.12
2018-08-02T00:24:34.785Z,1016.12
2018-08-02T00:25:34.782Z,1016.09
2018-08-02T00:26:34.760Z,1016.14
2018-08-02T00:27:34.745Z,1016.12
2018-08-02T00:28:34.735Z,1016.10
2018-08-02T00:29:34.721Z,1016.15
2018-08-02T00:30:34.706Z,1016.14
2018-08-02T00:31:34.690Z,1016.16
2018-08-02T00:32:34.677Z,1016.10
2018-08-02T00:33:34.664Z,1016.11
2018-08-02T00:34:34.649Z,1016.14
2018-08-02T00:35:34.642Z,1016.11
2018-08-02T00:36:34.629Z,1016.10
2018-08-02T00:37:34.610Z,1016.14
2018-08-02T00:38:34.597Z,1016.17
2018-08-02T00:39:34.584Z,1016.15
2018-08-02T00:40:34.577Z,1016.17
2018-08-02T00:41:34.557Z,1016.12
2018-08-02T00:42:34.545Z,1016.12
2018-08-02T00:43:34.531Z,1016.10
2018-08-02T00:44:34.518Z,1016.09
2018-08-02T00:45:34.504Z,1016.14
2018-08-02T00:46:34.492Z,1016.10
2018-08-02T00:47:34.476Z,1016.11
2018-08-02T00:48:34.462Z,1016.12
2018-08-02T00:49:34.453Z,1016.12
2018-08-02T00:50:34.437Z,1016.10
2018-08-02T00:51:34.429Z,1016.12
2018-08-02T00:52:34.411Z,1016.09
2018-08-02T00:53:34.448Z,1016.07
2018-08-02T00:54:34.384Z,1016.06
2018-08-02T00:55:34.371Z,1016.08
2018-08-02T00:56:34.358Z,1016.05
2018-08-02T00:57:34.344Z,1016.07
2018-08-02T00:58:34.334Z,1016.08
2018-08-02T00:59:34.316Z,1016.08
2018-08-02T01:00:34.304Z,1016.07
2018-08-02T01:01:34.291Z,1016.05
2018-08-02T01:02:34.276Z,1016.05
2018-08-02T01:03:34.264Z,1016.04
2018-08-02T01:04:34.249Z,1016.05
2018-08-02T01:05:34.237Z,1016.01
2018-08-02T01:06:34.221Z,1015.98
2018-08-02T01:07:34.213Z,1016.02
2018-08-02T01:08:34.199Z,1016.04
2018-08-02T01:09:34.188Z,1016.02
2018-08-02T01:10:34.168Z,1016.04
2018-08-02T01:11:34.162Z,1016.05
2018-08-02T01:12:34.141Z,1015.98
2018-08-02T01:13:34.129Z,1016.02
2018-08-02T01:14:34.116Z,1016.03
2018-08-02T01:15:34.102Z,1016.04
2018-08-02T01:16:34.089Z,1016.02
2018-08-02T01:17:34.075Z,1016.00
2018-08-02T01:18:34.060Z,1015.98
2018-08-02T01:19:34.052Z,1016.02
2018-08-02T01:20:34.038Z,1015.97
2018-08-02T01:21:34.027Z,1015.98
2018-08-02T01:22:34.007Z,1016.00
2018-08-02T01:23:33.996Z,1015.98
2018-08-02T01:24:33.983Z,1015.97
2018-08-02T01:25:33.982Z,1015.99
2018-08-02T01:26:33.954Z,1016.00
2018-08-02T01:27:33.945Z,1015.98
2018-08-02T01:28:33.934Z,1015.99
2018-08-02T01:29:33.914Z,1016.01
2018-08-02T01:30:33.901Z,1016.00
2018-08-02T01:31:33.888Z,1015.99
2018-08-02T01:32:33.953Z,1016.03
2018-08-02T01:33:33.863Z,1016.03
2018-08-02T01:34:33.854Z,1016.03
2018-08-02T01:35:33.837Z,1016.04
2018-08-02T01:36:33.835Z,1016.00
2018-08-02T01:37:33.808Z,1016.01
2018-08-02T01:38:33.793Z,1016.00
2018-08-02T01:39:33.780Z,1015.95
2018-08-02T01:40:33.767Z,1015.97
2018-08-02T01:41:33.761Z,1015.98
2018-08-02T01:42:33.738Z,1015.98
2018-08-02T01:43:33.726Z,1015.97
2018-08-02T01:44:33.716Z,1015.96
2018-08-02T01:45:33.708Z,1015.99
2018-08-02T01:46:33.687Z,1015.96
2018-08-02T01:47:33.674Z,1015.96
2018-08-02T01:48:33.661Z,1015.98
2018-08-02T01:49:33.645Z,1015.97
2018-08-02T01:50:33.635Z,1015.99
2018-08-02T01:51:33.620Z,1015.97
2018-08-02T01:52:33.609Z,1015.97
2018-08-02T01:53:33.594Z,1015.98
2018-08-02T01:54:33.591Z,1015.98
2018-08-02T01:55:33.567Z,1015.95
2018-08-02T01:56:33.554Z,1015.96
2018-08-02T01:57:33.541Z,1015.96
2018-08-02T01:58:33.526Z,1015.97
2018-08-02T01:59:33.511Z,1015.97
2018-08-02T02:00:33.500Z,1015.93
2018-08-02T02:01:33.492Z,1015.98
2018-08-02T02:02:33.481Z,1015.97
2018-08-02T02:03:33.457Z,1015.97
2018-08-02T02:04:33.449Z,1015.96
2018-08-02T02:05:33.430Z,1015.95
2018-08-02T02:06:33.415Z,1015.93
2018-08-02T02:07:33.404Z,1015.96
2018-08-02T02:08:33.390Z,1015.97
2018-08-02T02:09:33.384Z,1015.93
2018-08-02T02:10:33.362Z,1015.96
2018-08-02T02:11:33.355Z,1015.97
2018-08-02T02:12:33.336Z,1015.97
2018-08-02T02:13:33.322Z,1016.00
2018-08-02T02:14:33.310Z,1016.02
2018-08-02T02:15:33.295Z,1016.02
2018-08-02T02:16:33.283Z,1016.03
2018-08-02T02:17:33.271Z,1016.04
2018-08-02T02:18:33.255Z,1016.02
2018-08-02T02:19:33.243Z,1016.02
2018-08-02T02:20:33.230Z,1015.99
2018-08-02T02:21:33.221Z,1016.00
2018-08-02T02:22:33.202Z,1016.03
2018-08-02T02:23:33.190Z,1016.05
2018-08-02T02:24:33.178Z,1016.01
2018-08-02T02:25:33.164Z,1016.05
2018-08-02T02:26:33.156Z,1016.03
2018-08-02T02:27:33.137Z,1016.03
2018-08-02T02:28:33.129Z,1016.01
2018-08-02T02:29:33.110Z,1016.00
2018-08-02T02:30:33.101Z,1015.99
2018-08-02T02:31:33.084Z,1015.94
2018-08-02T02:32:33.071Z,1015.96
2018-08-02T02:33:33.057Z,1015.95
2018-08-02T02:34:33.041Z,1015.96
2018-08-02T02:35:33.028Z,1015.96
2018-08-02T02:36:33.015Z,1015.98
2018-08-02T02:37:33.004Z,1015.99
2018-08-02T02:38:32.990Z,1016.00
2018-08-02T02:39:32.976Z,1016.03
2018-08-02T02:40:32.963Z,1016.00
2018-08-02T02:41:32.948Z,1016.03
2018-08-02T02:42:32.937Z,1015.98
2018-08-02T02:43:32.921Z,1015.98
2018-08-02T02:44:32.910Z,1015.99
2018-08-02T02:45:32.897Z,1016.00
2018-08-02T02:46:32.881Z,1015.97
2018-08-02T02:47:32.868Z,1015.96
2018-08-02T02:48:32.858Z,1015.96
2018-08-02T02:49:32.842Z,1015.96
2018-08-02T02:50:32.829Z,1015.98
2018-08-02T02:51:32.814Z,1015.98
2018-08-02T02:52:32.811Z,1016.00
2018-08-02T02:53:32.790Z,1015.95
2018-08-02T02:54:32.776Z,1015.99
2018-08-02T02:55:32.761Z,1015.94
2018-08-02T02:56:32.759Z,1015.98
2018-08-02T02:57:32.735Z,1015.99
2018-08-02T02:58:32.724Z,1015.98
2018-08-02T02:59:32.716Z,1015.97
2018-08-02T03:00:32.697Z,1015.96
2018-08-02T03:01:32.683Z,1015.98
2018-08-02T03:02:32.670Z,1015.97
2018-08-02T03:03:32.655Z,1016.00
2018-08-02T03:04:32.647Z,1015.99
2018-08-02T03:05:32.627Z,1015.99
2018-08-02T03:06:32.621Z,1016.01
2018-08-02T03:07:32.601Z,1015.99
2018-08-02T03:08:32.590Z,1016.00
2018-08-02T03:09:32.575Z,1016.02
2018-08-02T03:10:32.562Z,1016.02
2018-08-02T03:11:32.549Z,1016.07
2018-08-02T03:12:32.535Z,1016.10
2018-08-02T03:13:32.523Z,1016.13
2018-08-02T03:14:32.511Z,1016.13
2018-08-02T03:15:32.495Z,1016.15
2018-08-02T03:16:32.482Z,1016.15
2018-08-02T03:17:32.469Z,1016.17
2018-08-02T03:18:32.458Z,1016.19
2018-08-02T03:19:32.447Z,1016.19
2018-08-02T03:20:32.486Z,1016.22
2018-08-02T03:21:32.414Z,1016.23
2018-08-02T03:22:32.403Z,1016.25
2018-08-02T03:23:32.393Z,1016.29
2018-08-02T03:24:32.387Z,1016.33
2018-08-02T03:25:32.361Z,1016.33
2018-08-02T03:26:32.347Z,1016.38
2018-08-02T03:27:32.335Z,1016.41
2018-08-02T03:28:32.321Z,1016.38
2018-08-02T03:29:32.311Z,1016.40
2018-08-02T03:30:32.294Z,1016.39
2018-08-02T03:31:32.282Z,1016.39
2018-08-02T03:32:32.269Z,1016.39
2018-08-02T03:33:32.256Z,1016.40
2018-08-02T03:34:32.239Z,1016.42
2018-08-02T03:35:32.227Z,1016.40
2018-08-02T03:36:32.214Z,1016.40
2018-08-02T03:37:32.199Z,1016.36
2018-08-02T03:38:32.186Z,1016.39
2018-08-02T03:39:32.171Z,1016.42
2018-08-02T03:40:32.159Z,1016.41
2018-08-02T03:41:32.151Z,1016.43
2018-08-02T03:42:32.133Z,1016.43
2018-08-02T03:43:32.119Z,1016.45
2018-08-02T03:44:32.107Z,1016.44
2018-08-02T03:45:32.098Z,1016.45
2018-08-02T03:46:32.163Z,1016.46
2018-08-02T03:47:32.066Z,1016.48
2018-08-02T03:48:32.053Z,1016.46
2018-08-02T03:49:32.040Z,1016.49
2018-08-02T03:50:32.024Z,1016.49
2018-08-02T03:51:32.011Z,1016.53
2018-08-02T03:52:31.996Z,1016.51
2018-08-02T03:53:32.025Z,1016.54
2018-08-02T03:54:31.989Z,1016.57
2018-08-02T03:55:31.961Z,1016.55
2018-08-02T03:56:31.943Z,1016.59
2018-08-02T03:57:31.929Z,1016.59
2018-08-02T03:58:31.919Z,1016.65
2018-08-02T03:59:31.902Z,1016.61
2018-08-02T04:00:31.888Z,1016.63
2018-08-02T04:01:31.876Z,1016.64
2018-08-02T04:02:31.865Z,1016.64
2018-08-02T04:03:31.850Z,1016.68
2018-08-02T04:04:31.834Z,1016.72
2018-08-02T04:05:31.822Z,1016.74
2018-08-02T04:06:31.807Z,1016.74
2018-08-02T04:07:31.797Z,1016.79
2018-08-02T04:08:31.781Z,1016.79
2018-08-02T04:09:31.767Z,1016.80
2018-08-02T04:10:31.756Z,1016.83
2018-08-02T04:11:31.740Z,1016.80
2018-08-02T04:12:31.734Z,1016.84
2018-08-02T04:13:31.714Z,1016.84
2018-08-02T04:14:31.699Z,1016.81
2018-08-02T04:15:31.685Z,1016.81
2018-08-02T04:16:31.672Z,1016.83
2018-08-02T04:17:31.673Z,1016.85
2018-08-02T04:18:31.644Z,1016.88
2018-08-02T04:19:31.631Z,1016.89
2018-08-02T04:20:31.618Z,1016.90
2018-08-02T04:21:31.602Z,1016.90
2018-08-02T04:22:31.592Z,1016.87
2018-08-02T04:23:31.579Z,1016.88
2018-08-02T04:24:31.562Z,1016.88
2018-08-02T04:25:31.549Z,1016.89
2018-08-02T04:26:31.533Z,1016.88
2018-08-02T04:27:31.522Z,1016.89
2018-08-02T04:28:31.506Z,1016.87
2018-08-02T04:29:31.493Z,1016.87
2018-08-02T04:30:31.480Z,1016.90
2018-08-02T04:31:31.468Z,1016.92
2018-08-02T04:32:31.456Z,1016.90
2018-08-02T04:33:31.442Z,1016.94
2018-08-02T04:34:31.426Z,1016.94
2018-08-02T04:35:31.417Z,1016.96
2018-08-02T04:36:31.400Z,1016.98
2018-08-02T04:37:31.391Z,1016.94
2018-08-02T04:38:31.371Z,1016.94
2018-08-02T04:39:31.365Z,1016.88
2018-08-02T04:40:31.345Z,1016.93
2018-08-02T04:41:31.331Z,1016.88
2018-08-02T04:42:31.315Z,1016.89
2018-08-02T04:43:31.306Z,1016.88
2018-08-02T04:44:31.288Z,1016.88
2018-08-02T04:45:31.275Z,1016.91
2018-08-02T04:46:31.262Z,1016.92
2018-08-02T04:47:31.249Z,1016.93
2018-08-02T04:48:31.235Z,1016.95
2018-08-02T04:49:31.220Z,1016.94
2018-08-02T04:50:31.210Z,1016.94
2018-08-02T04:51:31.193Z,1016.95
2018-08-02T04:52:31.183Z,1016.94
2018-08-02T04:53:31.168Z,1016.95
2018-08-02T04:54:31.154Z,1016.96
2018-08-02T04:55:31.137Z,1016.98
2018-08-02T04:56:31.125Z,1017.00
2018-08-02T04:57:31.109Z,1016.99
2018-08-02T04:58:31.098Z,1016.97
2018-08-02T04:59:31.085Z,1017.04
2018-08-02T05:00:31.068Z,1017.01
2018-08-02T05:01:31.055Z,1016.97
2018-08-02T05:02:31.040Z,1016.98
2018-08-02T05:03:31.027Z,1016.97
2018-08-02T05:04:31.015Z,1016.97
2018-08-02T05:05:30.999Z,1016.94
2018-08-02T05:06:30.989Z,1016.95
2018-08-02T05:07:30.975Z,1016.94
2018-08-02T05:08:30.962Z,1016.94
2018-08-02T05:09:30.945Z,1016.93
2018-08-02T05:10:30.929Z,1016.94
2018-08-02T05:11:30.929Z,1016.96
2018-08-02T05:12:30.906Z,1016.94
2018-08-02T05:13:30.904Z,1016.95
2018-08-02T05:14:30.876Z,1016.92
2018-08-02T05:15:30.864Z,1016.92
2018-08-02T05:16:30.852Z,1016.92
2018-08-02T05:17:30.874Z,1016.93
2018-08-02T05:18:30.821Z,1016.96
2018-08-02T05:19:30.817Z,1016.97
2018-08-02T05:20:30.794Z,1016.94
2018-08-02T05:21:30.781Z,1016.93
2018-08-02T05:22:30.831Z,1016.94
2018-08-02T05:23:30.754Z,1016.95
2018-08-02T05:24:30.742Z,1016.94
2018-08-02T05:25:30.727Z,1016.95
2018-08-02T05:26:30.711Z,1016.92
2018-08-02T05:27:30.698Z,1016.91
2018-08-02T05:28:30.687Z,1016.98
2018-08-02T05:29:30.673Z,1016.95
2018-08-02T05:30:30.658Z,1016.98
2018-08-02T05:31:30.642Z,1016.95
2018-08-02T05:32:30.629Z,1016.98
2018-08-02T05:33:30.619Z,1017.00
2018-08-02T05:34:30.958Z,1017.00
2018-08-02T05:35:30.702Z,1017.02
2018-08-02T05:36:31.217Z,1017.00
2018-08-02T05:37:30.577Z,1017.02
2018-08-02T05:38:30.552Z,1016.99
2018-08-02T05:39:30.535Z,1016.98
2018-08-02T05:40:30.520Z,1017.01
2018-08-02T05:41:30.508Z,1017.00
2018-08-02T05:42:30.504Z,1017.01
2018-08-02T05:43:30.479Z,1017.00
2018-08-02T05:44:30.466Z,1017.01
2018-08-02T05:45:30.455Z,1017.03
2018-08-02T05:46:30.439Z,1017.04
2018-08-02T05:47:30.427Z,1017.03
2018-08-02T05:48:30.420Z,1017.05
2018-08-02T05:49:30.400Z,1017.09
2018-08-02T05:50:30.385Z,1017.08
2018-08-02T05:51:30.460Z,1017.06
2018-08-02T05:52:30.362Z,1017.08
2018-08-02T05:53:30.345Z,1017.11
2018-08-02T05:54:30.331Z,1017.11
2018-08-02T05:55:30.316Z,1017.13
2018-08-02T05:56:30.301Z,1017.15
2018-08-02T05:57:30.291Z,1017.16
2018-08-02T05:58:30.278Z,1017.16
2018-08-02T05:59:30.270Z,1017.14
2018-08-02T06:00:30.247Z,1017.19
2018-08-02T06:01:30.243Z,1017.16
2018-08-02T06:02:30.222Z,1017.15
2018-08-02T06:03:30.207Z,1017.23
2018-08-02T06:04:30.199Z,1017.20
2018-08-02T06:05:30.282Z,1017.22
2018-08-02T06:06:30.171Z,1017.21
2018-08-02T06:07:30.157Z,1017.19
2018-08-02T06:08:30.141Z,1017.18
2018-08-02T06:09:30.129Z,1017.18
2018-08-02T06:10:30.114Z,1017.13
2018-08-02T06:11:30.101Z,1017.13
2018-08-02T06:12:30.090Z,1017.16
2018-08-02T06:13:30.073Z,1017.16
2018-08-02T06:14:30.060Z,1017.17
2018-08-02T06:15:30.049Z,1017.17
2018-08-02T06:16:30.072Z,1017.16
2018-08-02T06:17:30.021Z,1017.19
2018-08-02T06:18:30.013Z,1017.20
2018-08-02T06:19:29.993Z,1017.16
2018-08-02T06:20:29.989Z,1017.20
2018-08-02T06:21:29.968Z,1017.17
2018-08-02T06:22:29.954Z,1017.18
2018-08-02T06:23:29.940Z,1017.22
2018-08-02T06:24:29.931Z,1017.19
2018-08-02T06:25:29.917Z,1017.19
2018-08-02T06:26:29.899Z,1017.23
2018-08-02T06:27:29.888Z,1017.27
2018-08-02T06:28:29.874Z,1017.25
2018-08-02T06:29:29.863Z,1017.24
2018-08-02T06:30:29.854Z,1017.25
2018-08-02T06:31:29.836Z,1017.23
2018-08-02T06:32:29.820Z,1017.27
2018-08-02T06:33:29.822Z,1017.21
2018-08-02T06:34:29.792Z,1017.24
2018-08-02T06:35:29.779Z,1017.22
2018-08-02T06:36:29.766Z,1017.26
2018-08-02T06:37:29.753Z,1017.26
2018-08-02T06:38:29.743Z,1017.24
2018-08-02T06:39:29.735Z,1017.24
2018-08-02T06:40:29.714Z,1017.25
2018-08-02T06:41:29.704Z,1017.23
2018-08-02T06:42:29.686Z,1017.21
2018-08-02T06:43:29.676Z,1017.19
2018-08-02T06:44:29.664Z,1017.17
2018-08-02T06:45:29.648Z,1017.18
2018-08-02T06:46:29.635Z,1017.15
2018-08-02T06:47:29.620Z,1017.14
2018-08-02T06:48:29.608Z,1017.13
2018-08-02T06:49:29.593Z,1017.13
2018-08-02T06:50:29.588Z,1017.12
2018-08-02T06:51:29.568Z,1017.13
2018-08-02T06:52:29.559Z,1017.13
2018-08-02T06:53:29.542Z,1017.17
2018-08-02T06:54:29.534Z,1017.18
2018-08-02T06:55:29.517Z,1017.16
2018-08-02T06:56:29.502Z,1017.16
2018-08-02T06:57:29.489Z,1017.17
2018-08-02T06:58:29.475Z,1017.19
2018-08-02T06:59:29.464Z,1017.16
2018-08-02T07:00:29.459Z,1017.17
2018-08-02T07:01:29.438Z,1017.20
2018-08-02T07:02:29.424Z,1017.15
2018-08-02T07:03:29.411Z,1017.19
2018-08-02T07:04:29.398Z,1017.23
2018-08-02T07:05:29.386Z,1017.22
2018-08-02T07:06:29.370Z,1017.22
2018-08-02T07:07:29.358Z,1017.28
2018-08-02T07:08:29.346Z,1017.21
2018-08-02T07:09:29.334Z,1017.22
2018-08-02T07:10:29.321Z,1017.26
2018-08-02T07:11:29.308Z,1017.28
2018-08-02T07:12:29.300Z,1017.23
2018-08-02T07:13:29.288Z,1017.24
2018-08-02T07:14:29.271Z,1017.28
2018-08-02T07:15:29.265Z,1017.25
2018-08-02T07:16:29.242Z,1017.26
2018-08-02T07:17:29.240Z,1017.27
2018-08-02T07:18:29.220Z,1017.26
2018-08-02T07:19:29.208Z,1017.26
2018-08-02T07:20:29.194Z,1017.27
2018-08-02T07:21:29.179Z,1017.31
2018-08-02T07:22:29.166Z,1017.27
2018-08-02T07:23:29.154Z,1017.25
2018-08-02T07:24:29.143Z,1017.30
2018-08-02T07:25:29.128Z,1017.25
2018-08-02T07:26:29.118Z,1017.28
2018-08-02T07:27:29.103Z,1017.24
2018-08-02T07:28:29.097Z,1017.24
2018-08-02T07:29:29.079Z,1017.20
2018-08-02T07:30:29.066Z,1017.16
2018-08-02T07:31:29.053Z,1017.20
2018-08-02T07:32:29.040Z,1017.18
2018-08-02T07:33:29.046Z,1017.22
2018-08-02T07:34:29.020Z,1017.16
2018-08-02T07:35:29.005Z,1017.17
2018-08-02T07:36:29.003Z,1017.17
2018-08-02T07:37:28.979Z,1017.21
2018-08-02T07:38:28.974Z,1017.14
2018-08-02T07:39:28.952Z,1017.21
2018-08-02T07:40:28.942Z,1017.21
2018-08-02T07:41:28.931Z,1017.21
2018-08-02T07:42:28.919Z,1017.21
2018-08-02T07:43:29.023Z,1017.24
2018-08-02T07:44:28.893Z,1017.21
2018-08-02T07:45:28.883Z,1017.21
2018-08-02T07:46:28.876Z,1017.22
2018-08-02T07:47:28.869Z,1017.24
2018-08-02T07:48:28.874Z,1017.26
2018-08-02T07:49:28.838Z,1017.25
2018-08-02T07:50:28.818Z,1017.28
2018-08-02T07:51:28.805Z,1017.30
2018-08-02T07:52:28.798Z,1017.31
2018-08-02T07:53:28.791Z,1017.31
2018-08-02T07:54:28.770Z,1017.29
2018-08-02T07:55:28.757Z,1017.28
2018-08-02T07:56:28.747Z,1017.28
2018-08-02T07:57:28.734Z,1017.31
2018-08-02T07:58:28.721Z,1017.33
2018-08-02T07:59:28.709Z,1017.29
2018-08-02T08:00:28.696Z,1017.33
2018-08-02T08:01:28.686Z,1017.33
2018-08-02T08:02:28.683Z,1017.36
2018-08-02T08:03:28.668Z,1017.39
2018-08-02T08:04:28.646Z,1017.41
2018-08-02T08:05:28.645Z,1017.39
2018-08-02T08:06:28.626Z,1017.30
2018-08-02T08:07:28.612Z,1017.25
2018-08-02T08:08:28.605Z,1017.35
2018-08-02T08:09:28.589Z,1017.35
2018-08-02T08:10:28.582Z,1017.35
2018-08-02T08:11:28.576Z,1017.36
2018-08-02T08:12:28.563Z,1017.38
2018-08-02T08:13:28.540Z,1017.37
2018-08-02T08:14:28.541Z,1017.36
2018-08-02T08:15:28.517Z,1017.37
2018-08-02T08:16:28.511Z,1017.39
2018-08-02T08:17:28.498Z,1017.38
2018-08-02T08:18:28.485Z,1017.35
2018-08-02T08:19:28.474Z,1017.39
2018-08-02T08:20:28.469Z,1017.38
2018-08-02T08:21:28.491Z,1017.42
2018-08-02T08:22:28.439Z,1017.37
2018-08-02T08:23:28.444Z,1017.41
2018-08-02T08:24:28.417Z,1017.39
2018-08-02T08:25:28.404Z,1017.44
2018-08-02T08:26:28.438Z,1017.44
2018-08-02T08:27:28.382Z,1017.46
2018-08-02T08:28:28.371Z,1017.42
2018-08-02T08:29:28.411Z,1017.42
2018-08-02T08:30:28.349Z,1017.40
2018-08-02T08:31:28.346Z,1017.43
2018-08-02T08:32:28.352Z,1017.34
2018-08-02T08:33:28.317Z,1017.37
2018-08-02T08:34:28.313Z,1017.33
2018-08-02T08:35:28.298Z,1017.34
2018-08-02T08:36:28.338Z,1017.33
2018-08-02T08:37:28.327Z,1017.31
2018-08-02T08:38:28.265Z,1017.31
2018-08-02T08:39:28.249Z,1017.30
2018-08-02T08:40:28.239Z,1017.26
2018-08-02T08:41:28.228Z,1017.29
2018-08-02T08:42:28.216Z,1017.25
2018-08-02T08:43:28.249Z,1017.27
2018-08-02T08:44:28.195Z,1017.28
2018-08-02T08:45:28.186Z,1017.26
2018-08-02T08:46:28.175Z,1017.27
2018-08-02T08:47:28.171Z,1017.25
2018-08-02T08:48:28.165Z,1017.23
2018-08-02T08:49:28.141Z,1017.24
2018-08-02T08:50:28.129Z,1017.25
2018-08-02T08:51:28.126Z,1017.24
2018-08-02T08:52:28.110Z,1017.26
2018-08-02T08:53:28.099Z,1017.22
2018-08-02T08:54:28.086Z,1017.27
2018-08-02T08:55:28.082Z,1017.25
2018-08-02T08:56:28.071Z,1017.28
2018-08-02T08:57:28.056Z,1017.29
2018-08-02T08:58:28.044Z,1017.23
2018-08-02T08:59:28.049Z,1017.27
2018-08-02T09:00:28.026Z,1017.25
2018-08-02T09:01:28.017Z,1017.29
2018-08-02T09:02:28.006Z,1017.31
2018-08-02T09:03:28.006Z,1017.29
2018-08-02T09:04:27.985Z,1017.30
2018-08-02T09:05:27.975Z,1017.32
2018-08-02T09:06:27.964Z,1017.32
2018-08-02T09:07:27.957Z,1017.32
2018-08-02T09:08:27.945Z,1017.26
2018-08-02T09:09:27.993Z,1017.28
2018-08-02T09:10:27.924Z,1017.28
2018-08-02T09:11:27.911Z,1017.30
2018-08-02T09:12:27.906Z,1017.28
2018-08-02T09:13:27.899Z,1017.30
2018-08-02T09:14:27.881Z,1017.25
2018-08-02T09:15:27.870Z,1017.26
2018-08-02T09:16:27.860Z,1017.27
2018-08-02T09:17:27.858Z,1017.27
2018-08-02T09:18:27.844Z,1017.25
2018-08-02T09:19:27.830Z,1017.25
2018-08-02T09:20:27.820Z,1017.24
2018-08-02T09:21:27.813Z,1017.26
2018-08-02T09:22:27.801Z,1017.28
2018-08-02T09:23:27.790Z,1017.27
2018-08-02T09:24:27.780Z,1017.29
2018-08-02T09:25:27.770Z,1017.26
2018-08-02T09:26:27.766Z,1017.27
2018-08-02T09:27:27.748Z,1017.26
2018-08-02T09:28:27.747Z,1017.26
2018-08-02T09:29:27.743Z,1017.28
2018-08-02T09:30:27.722Z,1017.32
2018-08-02T09:31:27.708Z,1017.29
2018-08-02T09:32:27.743Z,1017.29
2018-08-02T09:33:27.687Z,1017.27
2018-08-02T09:34:27.676Z,1017.30
2018-08-02T09:35:27.666Z,1017.29
2018-08-02T09:36:27.666Z,1017.25
2018-08-02T09:37:27.653Z,1017.26
2018-08-02T09:38:27.636Z,1017.26
2018-08-02T09:39:27.628Z,1017.24
2018-08-02T09:40:27.621Z,1017.26
2018-08-02T09:41:27.615Z,1017.19
2018-08-02T09:42:27.606Z,1017.18
2018-08-02T09:43:27.588Z,1017.24
2018-08-02T09:44:27.578Z,1017.24
2018-08-02T09:45:27.573Z,1017.28
2018-08-02T09:46:27.593Z,1017.26
2018-08-02T09:47:27.548Z,1017.23
2018-08-02T09:48:27.540Z,1017.26
2018-08-02T09:49:27.534Z,1017.24
2018-08-02T09:50:27.518Z,1017.23
2018-08-02T09:51:27.509Z,1017.22
2018-08-02T09:52:27.502Z,1017.21
2018-08-02T09:53:27.489Z,1017.20
2018-08-02T09:54:27.480Z,1017.19
2018-08-02T09:55:27.471Z,1017.16
2018-08-02T09:56:27.469Z,1017.20
2018-08-02T09:57:27.458Z,1017.21
2018-08-02T09:58:27.440Z,1017.21
2018-08-02T09:59:27.434Z,1017.22
2018-08-02T10:00:27.421Z,1017.18
2018-08-02T10:01:27.415Z,1017.19
2018-08-02T10:02:27.414Z,1017.17
2018-08-02T10:03:27.424Z,1017.13
2018-08-02T10:04:27.390Z,1017.13
2018-08-02T10:05:27.373Z,1017.05
2018-08-02T10:06:27.362Z,1017.11
2018-08-02T10:07:27.357Z,1017.10
2018-08-02T10:08:27.344Z,1017.16
2018-08-02T10:09:27.333Z,1017.12
2018-08-02T10:10:27.322Z,1017.13
2018-08-02T10:11:27.313Z,1017.13
2018-08-02T10:12:27.308Z,1017.08
2018-08-02T10:13:27.303Z,1017.12
2018-08-02T10:14:27.287Z,1017.06
2018-08-02T10:15:27.278Z,1017.04
2018-08-02T10:16:27.266Z,1017.08
2018-08-02T10:17:27.256Z,1017.06
2018-08-02T10:18:27.247Z,1017.09
2018-08-02T10:19:27.248Z,1017.11
2018-08-02T10:20:27.235Z,1017.13
2018-08-02T10:21:27.223Z,1017.13
2018-08-02T10:22:27.219Z,1017.16
2018-08-02T10:23:27.205Z,1017.17
2018-08-02T10:24:27.189Z,1017.17
2018-08-02T10:25:27.181Z,1017.17
2018-08-02T10:26:27.172Z,1017.14
2018-08-02T10:27:27.168Z,1017.07
2018-08-02T10:28:27.152Z,1017.09
2018-08-02T10:29:27.146Z,1017.09
2018-08-02T10:30:27.135Z,1017.14
2018-08-02T10:31:27.143Z,1017.11
2018-08-02T10:32:27.119Z,1017.11
2018-08-02T10:33:27.107Z,1017.12
2018-08-02T10:34:27.099Z,1017.12
2018-08-02T10:35:27.086Z,1017.11
2018-08-02T10:36:27.078Z,1017.14
2018-08-02T10:37:27.070Z,1017.17
2018-08-02T10:38:27.067Z,1017.14
2018-08-02T10:39:27.068Z,1017.13
2018-08-02T10:40:27.049Z,1017.13
2018-08-02T10:41:27.036Z,1017.11
2018-08-02T10:42:27.024Z,1017.10
2018-08-02T10:43:27.016Z,1017.10
2018-08-02T10:44:27.032Z,1017.12
2018-08-02T10:45:27.010Z,1017.11
2018-08-02T10:46:26.987Z,1017.12
2018-08-02T10:47:26.977Z,1017.09
2018-08-02T10:48:26.977Z,1017.05
2018-08-02T10:49:26.959Z,1017.02
2018-08-02T10:50:26.952Z,1016.99
2018-08-02T10:51:26.942Z,1017.04
2018-08-02T10:52:26.932Z,1017.02
2018-08-02T10:53:26.933Z,1017.05
2018-08-02T10:54:26.911Z,1017.08
2018-08-02T10:55:26.903Z,1017.06
2018-08-02T10:56:26.895Z,1017.03
2018-08-02T10:57:26.885Z,1017.01
2018-08-02T10:58:26.880Z,1017.04
2018-08-02T10:59:26.872Z,1017.02
2018-08-02T11:00:26.859Z,1016.97
2018-08-02T11:01:26.944Z,1017.00
2018-08-02T11:02:26.841Z,1016.94
2018-08-02T11:03:26.831Z,1016.93
2018-08-02T11:04:26.828Z,1016.94
2018-08-02T11:05:26.815Z,1016.98
2018-08-02T11:06:26.818Z,1016.94
2018-08-02T11:07:26.796Z,1016.98
2018-08-02T11:08:26.791Z,1016.94
2018-08-02T11:09:26.825Z,1016.93
2018-08-02T11:10:26.768Z,1016.91
2018-08-02T11:11:26.760Z,1016.90
2018-08-02T11:12:26.797Z,1016.93
2018-08-02T11:13:26.743Z,1016.90
2018-08-02T11:14:26.747Z,1016.90
2018-08-02T11:15:26.722Z,1016.93
2018-08-02T11:16:26.713Z,1016.91
2018-08-02T11:17:26.720Z,1016.96
2018-08-02T11:18:26.702Z,1016.92
2018-08-02T11:19:26.700Z,1016.91
2018-08-02T11:20:26.683Z,1016.91
2018-08-02T11:21:26.675Z,1016.89
2018-08-02T11:22:26.661Z,1016.91
2018-08-02T11:23:26.652Z,1016.90
2018-08-02T11:24:26.650Z,1016.92
2018-08-02T11:25:26.633Z,1016.79
2018-08-02T11:26:26.628Z,1016.87
2018-08-02T11:27:26.620Z,1016.82
2018-08-02T11:28:26.723Z,1016.78
2018-08-02T11:29:26.600Z,1016.76
2018-08-02T11:30:26.591Z,1016.75
2018-08-02T11:31:26.582Z,1016.77
2018-08-02T11:32:26.573Z,1016.77
2018-08-02T11:33:26.574Z,1016.81
2018-08-02T11:34:26.563Z,1016.90
2018-08-02T11:35:26.544Z,1016.92
2018-08-02T11:36:26.535Z,1016.97
2018-08-02T11:37:26.560Z,1016.97
2018-08-02T11:38:26.518Z,1016.97
2018-08-02T11:39:26.512Z,1016.95
2018-08-02T11:40:26.509Z,1016.94
2018-08-02T11:41:26.492Z,1016.93
2018-08-02T11:42:26.483Z,1016.93
2018-08-02T11:43:26.472Z,1016.93
2018-08-02T11:44:26.466Z,1016.91
2018-08-02T11:45:26.455Z,1016.94
2018-08-02T11:46:26.449Z,1016.90
2018-08-02T11:47:26.448Z,1016.91
2018-08-02T11:48:26.431Z,1016.87
2018-08-02T11:49:26.429Z,1016.86
2018-08-02T11:50:26.418Z,1016.81
2018-08-02T11:51:26.403Z,1016.83
2018-08-02T11:52:26.394Z,1016.83
2018-08-02T11:53:26.398Z,1016.83
2018-08-02T11:54:26.378Z,1016.85
2018-08-02T11:55:26.368Z,1016.87
2018-08-02T11:56:26.515Z,1016.85
2018-08-02T11:57:26.425Z,1016.85
2018-08-02T11:58:26.342Z,1016.82
2018-08-02T11:59:26.332Z,1016.83
2018-08-02T12:00:26.325Z,1016.84
2018-08-02T12:01:26.316Z,1016.83
2018-08-02T12:02:26.310Z,1016.74
2018-08-02T12:03:26.300Z,1016.74
2018-08-02T12:04:26.288Z,1016.74
2018-08-02T12:05:26.287Z,1016.79